createdAt,value
2018-02-14T00:01:56.625Z,-4.30
2018-02-14T00:04:24.204Z,-4.40
2018-02-14T00:06:52.559Z,-4.40
2018-02-14T00:09:20.160Z,-4.50
2018-02-14T00:11:47.731Z,-4.50
2018-02-14T00:14:15.327Z,-4.50
2018-02-14T00:16:42.930Z,-4.40
2018-02-14T00:19:10.494Z,-4.50
2018-02-14T00:21:38.097Z,-4.30
2018-02-14T00:24:05.680Z,-4.30
2018-02-14T00:26:33.270Z,-4.20
2018-02-14T00:29:00.889Z,-4.30
2018-02-14T00:31:28.466Z,-4.20
2018-02-14T00:33:56.073Z,-4.30
2018-02-14T00:36:23.639Z,-4.40
2018-02-14T00:38:51.275Z,-4.30
2018-02-14T00:41:18.863Z,-4.30
2018-02-14T00:43:46.651Z,-4.50
2018-02-14T00:46:14.995Z,-4.60
2018-02-14T00:48:42.571Z,-4.60
2018-02-14T00:51:10.275Z,-4.50
2018-02-14T00:53:37.866Z,-4.60
2018-02-14T00:56:05.439Z,-4.70
2018-02-14T00:58:33.356Z,-4.80
2018-02-14T01:01:00.946Z,-4.70
2018-02-14T01:03:29.495Z,-4.80
2018-02-14T01:05:57.897Z,-4.90
2018-02-14T01:08:25.678Z,-4.90
2018-02-14T01:10:54.055Z,-4.80
2018-02-14T01:13:21.722Z,-4.80
2018-02-14T01:15:49.342Z,-4.90
2018-02-14T01:18:16.906Z,-4.90
2018-02-14T01:20:44.512Z,-5.00
2018-02-14T01:23:12.067Z,-5.00
2018-02-14T01:25:39.671Z,-5.10
2018-02-14T01:28:08.044Z,-4.90
2018-02-14T01:30:36.504Z,-4.90
2018-02-14T01:33:04.414Z,-4.90
2018-02-14T01:35:33.497Z,-4.70
2018-02-14T01:38:01.099Z,-4.70
2018-02-14T01:40:28.675Z,-4.80
2018-02-14T01:42:56.298Z,-4.90
2018-02-14T01:45:24.650Z,-5.10
2018-02-14T01:47:52.249Z,-5.10
2018-02-14T01:50:20.596Z,-5.00
2018-02-14T01:52:48.232Z,-5.00
2018-02-14T01:55:15.823Z,-5.00
2018-02-14T01:57:43.417Z,-5.10
2018-02-14T02:00:10.980Z,-5.10
2018-02-14T02:02:38.545Z,-5.20
2018-02-14T02:05:06.176Z,-5.10
2018-02-14T02:07:33.761Z,-5.20
2018-02-14T02:10:01.418Z,-5.20
2018-02-14T02:12:28.952Z,-5.30
2018-02-14T02:14:56.630Z,-5.20
2018-02-14T02:17:24.196Z,-5.30
2018-02-14T02:19:51.783Z,-5.30
2018-02-14T02:22:19.380Z,-5.40
2018-02-14T02:24:47.711Z,-5.30
2018-02-14T02:27:15.327Z,-5.30
2018-02-14T02:29:42.928Z,-5.20
2018-02-14T02:32:10.504Z,-5.10
2018-02-14T02:34:38.116Z,-4.90
2018-02-14T02:37:05.712Z,-4.90
2018-02-14T02:39:45.432Z,-4.90
2018-02-14T02:42:13.001Z,-4.90
2018-02-14T02:44:41.354Z,-5.00
2018-02-14T02:47:08.952Z,-5.00
2018-02-14T02:49:37.284Z,-4.90
2018-02-14T02:52:05.200Z,-5.00
2018-02-14T02:54:33.540Z,-5.10
2018-02-14T02:57:01.110Z,-5.10
2018-02-14T02:59:28.705Z,-5.00
2018-02-14T03:01:56.314Z,-4.90
2018-02-14T03:04:23.871Z,-5.10
2018-02-14T03:06:51.458Z,-5.10
2018-02-14T03:09:19.165Z,-5.10
2018-02-14T03:11:47.518Z,-5.10
2018-02-14T03:14:15.096Z,-5.10
2018-02-14T03:16:42.702Z,-5.10
2018-02-14T03:19:11.397Z,-5.20
2018-02-14T03:21:39.754Z,-5.00
2018-02-14T03:24:07.320Z,-5.00
2018-02-14T03:26:34.899Z,-5.00
2018-02-14T03:29:02.521Z,-5.10
2018-02-14T03:31:30.125Z,-5.10
2018-02-14T03:33:58.539Z,-5.20
2018-02-14T03:36:26.140Z,-5.20
2018-02-14T03:38:53.699Z,-5.30
2018-02-14T03:41:21.339Z,-5.20
2018-02-14T03:43:48.920Z,-5.30
2018-02-14T03:46:16.526Z,-5.30
2018-02-14T03:48:44.530Z,-5.40
2018-02-14T03:51:12.111Z,-5.50
2018-02-14T03:53:39.733Z,-5.40
2018-02-14T03:56:07.566Z,-5.40
2018-02-14T03:58:35.224Z,-5.40
2018-02-14T04:01:02.857Z,-5.40
2018-02-14T04:03:31.387Z,-5.30
2018-02-14T04:05:59.948Z,-5.30
2018-02-14T04:08:27.812Z,-5.30
2018-02-14T04:10:56.220Z,-5.30
2018-02-14T04:13:23.808Z,-5.30
2018-02-14T04:15:51.406Z,-5.40
2018-02-14T04:18:19.758Z,-5.30
2018-02-14T04:20:47.321Z,-5.40
2018-02-14T04:23:14.915Z,-5.30
2018-02-14T04:25:42.518Z,-5.40
2018-02-14T04:28:23.001Z,-5.50
2018-02-14T04:30:50.689Z,-5.60
2018-02-14T04:33:18.272Z,-5.60
2018-02-14T04:35:46.165Z,-5.60
2018-02-14T04:38:15.134Z,-5.80
2018-02-14T04:40:42.709Z,-5.80
2018-02-14T04:43:11.071Z,-5.60
2018-02-14T04:45:38.678Z,-5.60
2018-02-14T04:48:06.267Z,-5.50
2018-02-14T04:50:33.893Z,-5.60
2018-02-14T04:53:02.239Z,-5.40
2018-02-14T04:55:30.676Z,-5.40
2018-02-14T04:57:58.282Z,-5.40
2018-02-14T05:00:25.896Z,-5.50
2018-02-14T05:02:54.260Z,-5.40
2018-02-14T05:05:22.156Z,-5.40
2018-02-14T05:07:50.504Z,-5.30
2018-02-14T05:10:18.117Z,-5.30
2018-02-14T05:12:45.725Z,-5.30
2018-02-14T05:15:13.344Z,-5.20
2018-02-14T05:17:40.944Z,-5.20
2018-02-14T05:20:08.513Z,-5.20
2018-02-14T05:22:36.095Z,-5.30
2018-02-14T05:25:03.654Z,-5.20
2018-02-14T05:27:31.264Z,-5.30
2018-02-14T05:29:58.854Z,-5.20
2018-02-14T05:32:26.438Z,-5.30
2018-02-14T05:34:54.034Z,-5.30
2018-02-14T05:37:21.645Z,-5.30
2018-02-14T05:39:49.216Z,-5.30
2018-02-14T05:42:17.025Z,-5.20
2018-02-14T05:44:45.326Z,-5.10
2018-02-14T05:47:13.708Z,-5.30
2018-02-14T05:49:42.084Z,-5.30
2018-02-14T05:52:10.461Z,-5.20
2018-02-14T05:54:38.060Z,-5.20
2018-02-14T05:57:06.436Z,-5.30
2018-02-14T05:59:35.522Z,-5.30
2018-02-14T06:02:03.117Z,-5.40
2018-02-14T06:04:30.742Z,-5.30
2018-02-14T06:06:58.339Z,-5.30
2018-02-14T06:09:25.976Z,-5.30
2018-02-14T06:11:53.578Z,-5.30
2018-02-14T06:14:21.210Z,-5.10
2018-02-14T06:16:48.793Z,-5.20
2018-02-14T06:19:16.752Z,-5.20
2018-02-14T06:21:45.140Z,-5.30
2018-02-14T06:24:12.753Z,-5.30
2018-02-14T06:26:40.423Z,-5.30
2018-02-14T06:29:08.049Z,-5.50
2018-02-14T06:31:35.668Z,-5.70
2018-02-14T06:34:03.248Z,-5.70
2018-02-14T06:36:30.874Z,-5.70
2018-02-14T06:38:58.594Z,-5.70
2018-02-14T06:41:26.205Z,-5.60
2018-02-14T06:43:53.785Z,-5.70
2018-02-14T06:46:21.713Z,-5.50
2018-02-14T06:48:50.079Z,-5.50
2018-02-14T06:51:18.220Z,-5.50
2018-02-14T06:53:45.834Z,-5.50
2018-02-14T06:56:14.181Z,-5.40
2018-02-14T06:58:41.870Z,-5.40
2018-02-14T07:01:09.499Z,-5.40
2018-02-14T07:03:37.813Z,-5.50
2018-02-14T07:06:05.376Z,-5.60
2018-02-14T07:08:33.436Z,-5.40
2018-02-14T07:11:01.061Z,-5.20
2018-02-14T07:13:30.262Z,-5.00
2018-02-14T07:15:58.675Z,-4.90
2018-02-14T07:18:26.287Z,-4.90
2018-02-14T07:20:53.930Z,-4.70
2018-02-14T07:23:27.230Z,-4.70
2018-02-14T07:25:54.802Z,-4.50
2018-02-14T07:28:22.466Z,-4.50
2018-02-14T07:30:50.048Z,-4.40
2018-02-14T07:33:18.443Z,-4.00
2018-02-14T07:35:46.832Z,-4.00
2018-02-14T07:38:15.213Z,-4.10
2018-02-14T07:40:43.599Z,-3.80
2018-02-14T07:43:12.810Z,-3.70
2018-02-14T07:45:41.163Z,-3.70
2018-02-14T07:48:08.752Z,-3.80
2018-02-14T07:50:37.113Z,-3.60
2018-02-14T07:53:04.737Z,-3.60
2018-02-14T07:55:32.322Z,-3.60
2018-02-14T07:57:59.960Z,-3.40
2018-02-14T08:00:27.960Z,-3.30
2018-02-14T08:02:55.737Z,-3.20
2018-02-14T08:05:23.325Z,-3.20
2018-02-14T08:07:51.676Z,-3.10
2018-02-14T08:10:19.293Z,-3.10
2018-02-14T08:12:47.756Z,-3.00
2018-02-14T08:15:15.383Z,-3.00
2018-02-14T08:17:43.034Z,-2.80
2018-02-14T08:20:11.106Z,-2.70
2018-02-14T08:22:38.686Z,-2.60
2018-02-14T08:25:06.313Z,-2.50
2018-02-14T08:27:34.685Z,-2.30
2018-02-14T08:30:03.040Z,-2.30
2018-02-14T08:32:30.629Z,-2.30
2018-02-14T08:34:59.128Z,-2.00
2018-02-14T08:37:27.462Z,-1.90
2018-02-14T08:39:55.083Z,-1.90
2018-02-14T08:42:22.702Z,-1.70
2018-02-14T08:44:50.332Z,-1.60
2018-02-14T08:47:17.903Z,-1.40
2018-02-14T08:49:45.503Z,-1.30
2018-02-14T08:52:13.068Z,-1.20
2018-02-14T08:54:40.687Z,-1.20
2018-02-14T08:57:08.262Z,-1.00
2018-02-14T08:59:35.843Z,-0.80
2018-02-14T09:02:03.479Z,-0.60
2018-02-14T09:04:31.100Z,-0.50
2018-02-14T09:06:58.678Z,-0.40
2018-02-14T09:09:26.293Z,-0.30
2018-02-14T09:11:53.896Z,-0.20
2018-02-14T09:14:21.501Z,-0.20
2018-02-14T09:16:49.880Z,0.00
2018-02-14T09:19:18.258Z,0.20
2018-02-14T09:21:46.640Z,0.30
2018-02-14T09:24:15.305Z,0.30
2018-02-14T09:26:42.889Z,0.30
2018-02-14T09:29:11.265Z,0.50
2018-02-14T09:31:38.873Z,0.50
2018-02-14T09:34:06.433Z,0.50
2018-02-14T09:36:34.040Z,0.70
2018-02-14T09:39:01.657Z,0.80
2018-02-14T09:41:29.277Z,0.90
2018-02-14T09:43:56.904Z,1.00
2018-02-14T09:46:24.531Z,1.20
2018-02-14T09:48:52.876Z,1.30
2018-02-14T09:51:20.463Z,1.30
2018-02-14T09:53:48.095Z,1.50
2018-02-14T09:56:15.704Z,1.70
2018-02-14T09:58:43.309Z,1.60
2018-02-14T10:01:10.956Z,1.80
2018-02-14T10:03:39.333Z,2.00
2018-02-14T10:06:07.706Z,2.10
2018-02-14T10:08:35.324Z,2.10
2018-02-14T10:11:02.928Z,2.30
2018-02-14T10:13:30.505Z,2.30
2018-02-14T10:15:58.112Z,2.30
2018-02-14T10:18:25.686Z,2.60
2018-02-14T10:20:53.314Z,2.70
2018-02-14T10:23:20.895Z,2.80
2018-02-14T10:25:48.510Z,2.90
2018-02-14T10:28:16.763Z,2.80
2018-02-14T10:30:44.393Z,3.40
2018-02-14T10:33:12.731Z,3.60
2018-02-14T10:35:40.362Z,3.60
2018-02-14T10:38:07.952Z,3.60
2018-02-14T10:40:35.593Z,3.60
2018-02-14T10:43:03.164Z,3.80
2018-02-14T10:45:31.015Z,3.90
2018-02-14T10:47:58.689Z,4.10
2018-02-14T10:50:26.297Z,3.90
2018-02-14T10:52:53.860Z,3.90
2018-02-14T10:55:21.479Z,4.00
2018-02-14T10:57:49.877Z,4.00
2018-02-14T11:03:23.139Z,4.20
2018-02-14T11:05:56.401Z,4.70
2018-02-14T11:08:24.009Z,4.60
2018-02-14T11:10:52.359Z,4.80
2018-02-14T11:13:19.937Z,4.80
2018-02-14T11:15:49.696Z,5.10
2018-02-14T11:18:17.280Z,4.90
2018-02-14T11:20:44.887Z,5.30
2018-02-14T11:23:12.488Z,5.30
2018-02-14T11:25:40.053Z,4.80
2018-02-14T11:28:07.664Z,5.30
2018-02-14T11:30:35.238Z,5.30
2018-02-14T11:33:02.867Z,5.40
2018-02-14T11:35:30.458Z,5.60
2018-02-14T11:37:58.035Z,5.50
2018-02-14T11:40:25.673Z,6.00
2018-02-14T11:42:53.262Z,6.30
2018-02-14T11:45:20.868Z,6.30
2018-02-14T11:47:48.487Z,6.10
2018-02-14T11:50:16.063Z,6.70
2018-02-14T11:52:43.653Z,6.60
2018-02-14T11:55:12.052Z,7.00
2018-02-14T11:57:40.388Z,6.00
2018-02-14T12:00:08.176Z,6.00
2018-02-14T12:02:35.752Z,5.40
2018-02-14T12:05:04.726Z,6.10
2018-02-14T12:07:32.333Z,6.10
2018-02-14T12:09:59.914Z,6.00
2018-02-14T12:12:27.524Z,6.20
2018-02-14T12:14:55.086Z,5.60
2018-02-14T12:17:22.639Z,5.40
2018-02-14T12:19:50.255Z,5.50
2018-02-14T12:22:18.588Z,6.20
2018-02-14T12:24:46.154Z,6.10
2018-02-14T12:27:13.749Z,5.30
2018-02-14T12:29:41.404Z,5.80
2018-02-14T12:32:09.023Z,5.70
2018-02-14T12:34:36.584Z,5.60
2018-02-14T12:37:04.162Z,5.40
2018-02-14T12:39:31.760Z,5.60
2018-02-14T12:42:00.132Z,5.80
2018-02-14T12:44:27.722Z,5.80
2018-02-14T12:46:55.790Z,5.50
2018-02-14T12:49:24.382Z,5.30
2018-02-14T12:51:52.056Z,5.00
2018-02-14T12:54:20.533Z,4.40
2018-02-14T12:56:48.080Z,4.40
2018-02-14T12:59:15.690Z,4.50
2018-02-14T13:01:43.299Z,4.40
2018-02-14T13:04:11.188Z,4.40
2018-02-14T13:06:38.760Z,4.50
2018-02-14T13:09:07.123Z,4.60
2018-02-14T13:11:34.735Z,4.60
2018-02-14T13:14:03.118Z,4.50
2018-02-14T13:16:31.485Z,4.40
2018-02-14T13:18:59.079Z,4.40
2018-02-14T13:21:27.536Z,4.20
2018-02-14T13:23:55.087Z,4.20
2018-02-14T13:26:23.676Z,4.10
2018-02-14T13:28:51.261Z,4.00
2018-02-14T13:31:19.746Z,4.10
2018-02-14T13:33:48.482Z,4.10
2018-02-14T13:36:16.063Z,4.10
2018-02-14T13:38:43.666Z,4.00
2018-02-14T13:41:11.234Z,4.00
2018-02-14T13:43:38.824Z,3.90
2018-02-14T13:46:06.429Z,3.60
2018-02-14T13:48:34.022Z,3.70
2018-02-14T13:51:01.630Z,3.70
2018-02-14T13:53:29.255Z,3.70
2018-02-14T13:55:56.807Z,3.70
2018-02-14T13:58:24.890Z,3.60
2018-02-14T14:00:52.502Z,3.50
2018-02-14T14:03:20.129Z,3.20
2018-02-14T14:05:47.739Z,3.30
2018-02-14T14:08:15.331Z,3.30
2018-02-14T14:10:42.925Z,3.30
2018-02-14T14:13:11.052Z,3.20
2018-02-14T14:15:39.094Z,3.30
2018-02-14T14:18:06.764Z,3.30
2018-02-14T14:20:35.121Z,3.20
2018-02-14T14:23:03.322Z,3.20
2018-02-14T14:25:32.251Z,3.10
2018-02-14T14:27:59.901Z,3.10
2018-02-14T14:30:27.517Z,3.10
2018-02-14T14:32:55.191Z,3.00
2018-02-14T14:35:22.805Z,3.00
2018-02-14T14:37:50.365Z,2.90
2018-02-14T14:40:17.951Z,2.80
2018-02-14T14:42:45.597Z,2.80
2018-02-14T14:45:13.215Z,2.80
2018-02-14T14:47:40.817Z,2.80
2018-02-14T14:50:08.471Z,2.80
2018-02-14T14:52:36.093Z,2.70
2018-02-14T14:55:03.786Z,2.70
2018-02-14T14:57:32.164Z,2.60
2018-02-14T14:59:59.813Z,2.60
2018-02-14T15:02:28.210Z,2.50
2018-02-14T15:04:55.769Z,2.50
2018-02-14T15:07:23.376Z,2.50
2018-02-14T15:09:50.974Z,2.40
2018-02-14T15:12:18.586Z,2.40
2018-02-14T15:14:46.169Z,2.40
2018-02-14T15:17:13.748Z,2.30
2018-02-14T15:19:41.421Z,2.30
2018-02-14T15:22:09.066Z,2.20
2018-02-14T15:24:36.709Z,2.20
2018-02-14T15:27:05.081Z,1.90
2018-02-14T15:29:33.444Z,1.90
2018-02-14T15:32:01.059Z,1.90
2018-02-14T15:34:28.768Z,1.90
2018-02-14T15:36:56.398Z,1.70
2018-02-14T15:39:24.029Z,1.70
2018-02-14T15:41:51.678Z,1.70
2018-02-14T15:44:19.222Z,1.60
2018-02-14T15:46:46.854Z,1.50
2018-02-14T15:49:14.544Z,1.50
2018-02-14T15:51:42.133Z,1.40
2018-02-14T15:54:09.699Z,1.30
2018-02-14T15:56:37.307Z,1.20
2018-02-14T15:59:04.937Z,1.20
2018-02-14T16:01:32.535Z,1.00
2018-02-14T16:04:00.876Z,0.90
2018-02-14T16:06:28.499Z,0.90
2018-02-14T16:08:56.089Z,0.80
2018-02-14T16:11:23.669Z,0.80
2018-02-14T16:13:51.258Z,0.70
2018-02-14T16:16:18.855Z,0.60
2018-02-14T16:18:46.474Z,0.50
2018-02-14T16:21:14.056Z,0.50
2018-02-14T16:23:41.950Z,0.40
2018-02-14T16:26:10.733Z,0.20
2018-02-14T16:28:39.067Z,0.20
2018-02-14T16:31:06.973Z,0.10
2018-02-14T16:33:34.568Z,0.10
2018-02-14T16:36:02.973Z,-0.10
2018-02-14T16:38:30.734Z,-0.10
2018-02-14T16:40:59.345Z,-0.20
2018-02-14T16:43:26.955Z,-0.20
2018-02-14T16:45:54.638Z,-0.30
2018-02-14T16:48:23.025Z,-0.40
2018-02-14T16:50:50.683Z,-0.40
2018-02-14T16:53:19.060Z,-0.50
2018-02-14T16:55:47.499Z,-0.50
2018-02-14T16:58:15.140Z,-0.50
2018-02-14T17:00:43.500Z,-0.60
2018-02-14T17:03:12.046Z,-0.70
2018-02-14T17:05:39.667Z,-0.70
2018-02-14T17:08:08.070Z,-0.80
2018-02-14T17:10:35.688Z,-0.80
2018-02-14T17:13:03.319Z,-0.90
2018-02-14T17:15:31.260Z,-1.00
2018-02-14T17:17:59.844Z,-1.10
2018-02-14T17:20:28.193Z,-1.20
2018-02-14T17:22:56.398Z,-1.20
2018-02-14T17:25:24.745Z,-1.30
2018-02-14T17:27:52.412Z,-1.40
2018-02-14T17:30:20.050Z,-1.40
2018-02-14T17:32:47.689Z,-1.50
2018-02-14T17:35:15.296Z,-1.60
2018-02-14T17:37:43.024Z,-1.60
2018-02-14T17:40:10.612Z,-1.70
2018-02-14T17:42:38.254Z,-1.70
2018-02-14T17:45:06.147Z,-1.80
2018-02-14T17:47:33.738Z,-1.90
2018-02-14T17:50:01.337Z,-1.90
2018-02-14T17:52:29.741Z,-2.00
2018-02-14T17:54:57.360Z,-2.10
2018-02-14T17:57:25.007Z,-2.10
2018-02-14T17:59:52.654Z,-2.10
2018-02-14T18:02:20.275Z,-2.20
2018-02-14T18:04:47.905Z,-2.20
2018-02-14T18:07:16.037Z,-2.30
2018-02-14T18:09:44.405Z,-2.40
2018-02-14T18:12:12.174Z,-2.40
2018-02-14T18:14:39.789Z,-2.50
2018-02-14T18:17:07.392Z,-2.50
2018-02-14T18:19:35.058Z,-2.50
2018-02-14T18:22:03.116Z,-2.50
2018-02-14T18:24:30.702Z,-2.60
2018-02-14T18:26:58.330Z,-2.60
2018-02-14T18:29:25.983Z,-2.70
2018-02-14T18:31:53.666Z,-2.80
2018-02-14T18:34:21.303Z,-2.80
2018-02-14T18:36:49.644Z,-2.80
2018-02-14T18:39:17.284Z,-2.90
2018-02-14T18:41:44.873Z,-2.80
2018-02-14T18:44:12.503Z,-2.90
2018-02-14T18:46:40.097Z,-2.80
2018-02-14T18:49:09.656Z,-2.80
2018-02-14T18:51:38.039Z,-2.80
2018-02-14T18:54:06.639Z,-2.80
2018-02-14T18:56:34.255Z,-2.80
2018-02-14T18:59:02.028Z,-2.90
2018-02-14T19:01:29.621Z,-3.00
2018-02-14T19:03:58.081Z,-2.90
2018-02-14T19:06:25.731Z,-3.00
2018-02-14T19:08:53.390Z,-2.90
2018-02-14T19:11:21.022Z,-2.90
2018-02-14T19:13:49.660Z,-2.90
2018-02-14T19:16:17.512Z,-3.00
2018-02-14T19:18:45.135Z,-3.00
2018-02-14T19:21:12.797Z,-3.00
2018-02-14T19:23:41.170Z,-3.00
2018-02-14T19:26:08.934Z,-3.00
2018-02-14T19:28:36.595Z,-3.00
2018-02-14T19:31:05.096Z,-3.00
2018-02-14T19:33:32.724Z,-3.00
2018-02-14T19:36:00.331Z,-3.00
2018-02-14T19:38:28.933Z,-2.90
2018-02-14T19:40:56.537Z,-2.90
2018-02-14T19:43:25.158Z,-2.90
2018-02-14T19:45:53.589Z,-2.90
2018-02-14T19:48:21.273Z,-2.90
2018-02-14T19:50:48.902Z,-2.80
2018-02-14T19:53:17.373Z,-2.90
2018-02-14T19:55:45.346Z,-2.90
2018-02-14T19:58:12.957Z,-2.90
2018-02-14T20:00:40.662Z,-2.90
2018-02-14T20:03:08.236Z,-2.90
2018-02-14T20:05:35.852Z,-2.90
2018-02-14T20:08:04.226Z,-2.90
2018-02-14T20:10:31.833Z,-2.90
2018-02-14T20:12:59.528Z,-2.90
2018-02-14T20:15:27.108Z,-2.90
2018-02-14T20:17:55.099Z,-2.90
2018-02-14T20:20:23.500Z,-3.00
2018-02-14T20:22:51.092Z,-3.00
2018-02-14T20:25:19.594Z,-3.10
2018-02-14T20:27:47.229Z,-3.00
2018-02-14T20:30:14.897Z,-3.00
2018-02-14T20:32:42.527Z,-3.00
2018-02-14T20:35:10.177Z,-3.00
2018-02-14T20:37:37.850Z,-3.00
2018-02-14T20:40:05.493Z,-2.90
2018-02-14T20:42:33.087Z,-3.00
2018-02-14T20:45:01.505Z,-2.90
2018-02-14T20:47:29.142Z,-2.90
2018-02-14T20:49:56.804Z,-2.90
2018-02-14T20:52:24.391Z,-2.90
2018-02-14T20:54:52.780Z,-2.90
2018-02-14T20:57:21.149Z,-3.00
2018-02-14T20:59:49.548Z,-2.90
2018-02-14T21:04:51.056Z,-2.90
2018-02-14T21:07:18.762Z,-2.90
2018-02-14T21:09:46.463Z,-3.00
2018-02-14T21:12:14.116Z,-3.00
2018-02-14T21:14:41.740Z,-2.90
2018-02-14T21:17:09.401Z,-2.80
2018-02-14T21:19:37.583Z,-2.80
2018-02-14T21:22:05.223Z,-2.90
2018-02-14T21:24:32.880Z,-2.90
2018-02-14T21:27:01.395Z,-3.00
2018-02-14T21:29:29.024Z,-3.00
2018-02-14T21:31:57.426Z,-2.90
2018-02-14T21:34:25.348Z,-2.90
2018-02-14T21:36:52.797Z,-2.90
2018-02-14T21:39:20.412Z,-2.90
2018-02-14T21:41:48.843Z,-2.90
2018-02-14T21:44:16.511Z,-3.00
2018-02-14T21:46:44.114Z,-3.00
2018-02-14T21:49:12.498Z,-3.00
2018-02-14T21:51:41.145Z,-3.00
2018-02-14T21:54:08.742Z,-3.00
2018-02-14T21:56:36.356Z,-3.00
2018-02-14T21:59:03.973Z,-3.00
2018-02-14T22:01:32.416Z,-3.00
2018-02-14T22:04:00.029Z,-3.00
2018-02-14T22:06:28.435Z,-3.00
2018-02-14T22:08:56.836Z,-3.00
2018-02-14T22:11:24.829Z,-3.00
2018-02-14T22:13:52.453Z,-3.00
2018-02-14T22:16:20.851Z,-3.00
2018-02-14T22:18:48.599Z,-3.00
2018-02-14T22:21:16.200Z,-2.90
2018-02-14T22:23:43.799Z,-3.00
2018-02-14T22:26:11.426Z,-3.10
2018-02-14T22:28:39.741Z,-3.20
2018-02-14T22:31:07.329Z,-3.20
2018-02-14T22:33:35.755Z,-3.30
2018-02-14T22:36:03.365Z,-3.30
2018-02-14T22:38:30.975Z,-3.30
2018-02-14T22:40:59.403Z,-3.30
2018-02-14T22:43:26.992Z,-3.30
2018-02-14T22:45:54.622Z,-3.30
2018-02-14T22:48:22.219Z,-3.30
2018-02-14T22:50:50.867Z,-3.30
2018-02-14T22:53:18.503Z,-3.30
2018-02-14T22:55:46.921Z,-3.40
2018-02-14T22:58:14.547Z,-3.40
2018-02-14T23:00:42.931Z,-3.50
2018-02-14T23:03:11.293Z,-3.50
2018-02-14T23:05:38.944Z,-3.50
2018-02-14T23:08:06.545Z,-3.40
2018-02-14T23:10:34.981Z,-3.50
2018-02-14T23:13:02.591Z,-3.50
2018-02-14T23:15:30.975Z,-3.50
2018-02-14T23:17:58.627Z,-3.50
2018-02-14T23:20:26.230Z,-3.50
2018-02-14T23:22:53.990Z,-3.40
2018-02-14T23:25:22.374Z,-3.40
2018-02-14T23:27:49.993Z,-3.40
2018-02-14T23:30:17.647Z,-3.40
2018-02-14T23:32:45.251Z,-3.50
2018-02-14T23:35:12.873Z,-3.40
2018-02-14T23:37:40.491Z,-3.40
2018-02-14T23:40:08.311Z,-3.40
2018-02-14T23:42:35.931Z,-3.40
2018-02-14T23:45:04.314Z,-3.30
2018-02-14T23:47:31.961Z,-3.30
2018-02-14T23:49:59.594Z,-3.30
2018-02-14T23:52:27.228Z,-3.40
2018-02-14T23:54:55.912Z,-3.30
2018-02-14T23:57:24.293Z,-3.40
2018-02-14T23:59:52.703Z,-3.30
